Time;durP1;ratioP1;P1;durP2;ratioP2;P2;SDS_P1;SDS_P2;PMS_P1;PMS_P2;Temp;Humidity;BMP_temperature;BMP_pressure;BME280_temperature;BME280_humidity;BME280_pressure;Samples;Min_cycle;Max_cycle;Signal;HPM_P1;HPM_P2
2023/12/29 00:01:16;;;;;;;10.80;5.20;;;;;;;5.68;87.71;100311.95;111598;1209;139086;-68
2023/12/29 00:03:41;;;;;;;11.50;4.90;;;;;;;5.65;87.57;100305.30;111696;1206;99047;-68
2023/12/29 00:06:06;;;;;;;8.60;3.80;;;;;;;5.65;87.75;100301.04;111747;1209;99324;-68
2023/12/29 00:08:32;;;;;;;13.10;4.40;;;;;;;5.62;87.57;100300.58;111548;1206;138300;-68
2023/12/29 00:10:57;;;;;;;9.10;4.30;;;;;;;5.62;87.78;100298.81;111699;1209;100229;-68
2023/12/29 00:13:23;;;;;;;9.20;4.40;;;;;;;5.62;87.72;100300.07;111599;1206;138455;-68
2023/12/29 00:15:53;;;;;;;9.40;4.60;;;;;;;5.62;87.79;100290.14;111669;1206;98945;-68
2023/12/29 00:18:19;;;;;;;8.20;3.90;;;;;;;5.61;87.71;100283.95;111565;1209;138559;-68
2023/12/29 00:20:45;;;;;;;14.70;4.40;;;;;;;5.61;87.80;100280.59;111725;1207;98214;-68
2023/12/29 00:23:10;;;;;;;12.10;4.30;;;;;;;5.61;87.87;100279.89;111726;1212;97807;-68
2023/12/29 00:25:39;;;;;;;10.60;4.60;;;;;;;5.61;87.77;100280.42;111569;1206;139453;-68
2023/12/29 00:28:05;;;;;;;9.40;4.10;;;;;;;5.58;87.85;100273.94;111644;1206;112391;-68
2023/12/29 00:30:31;;;;;;;11.60;4.40;;;;;;;5.58;87.76;100267.38;111551;1209;139422;-69
2023/12/29 00:32:57;;;;;;;7.40;3.60;;;;;;;5.59;87.84;100269.67;111757;1208;98925;-68
2023/12/29 00:35:22;;;;;;;11.10;4.40;;;;;;;5.58;87.88;100270.77;111658;1209;98914;-68
2023/12/29 00:37:47;;;;;;;9.10;4.60;;;;;;;5.57;87.84;100264.23;111569;1206;139632;-68
2023/12/29 00:40:13;;;;;;;8.80;4.60;;;;;;;5.56;87.99;100264.24;111775;1209;99297;-69
2023/12/29 00:42:38;;;;;;;9.30;3.90;;;;;;;5.54;87.82;100258.81;111564;1206;138638;-68
2023/12/29 00:45:04;;;;;;;9.80;4.10;;;;;;;5.53;87.93;100258.30;111808;1208;99187;-68
2023/12/29 00:47:30;;;;;;;12.80;4.30;;;;;;;5.53;87.99;100260.44;111716;1209;99579;-68
2023/12/29 00:49:56;;;;;;;8.90;3.80;;;;;;;5.52;87.95;100257.08;111503;1206;140168;-68
2023/12/29 00:52:21;;;;;;;7.40;3.20;;;;;;;5.52;87.90;100254.27;111750;1206;98917;-68
2023/12/29 00:54:46;;;;;;;9.20;3.80;;;;;;;5.52;88.02;100248.41;111582;1209;138536;-68
2023/12/29 00:57:12;;;;;;;9.50;3.80;;;;;;;5.51;88.05;100249.49;111769;1209;98950;-68
2023/12/29 00:59:41;;;;;;;7.90;3.20;;;;;;;5.50;88.01;100247.95;111668;1206;98990;-68
2023/12/29 01:02:06;;;;;;;9.00;4.70;;;;;;;5.50;88.08;100245.98;111599;1209;138453;-68
2023/12/29 01:04:31;;;;;;;8.60;3.70;;;;;;;5.51;88.01;100242.77;111717;1209;100796;-68
2023/12/29 01:06:57;;;;;;;12.00;4.00;;;;;;;5.49;88.08;100233.98;111675;1207;139198;-68
2023/12/29 01:09:22;;;;;;;8.20;3.80;;;;;;;5.50;88.18;100238.91;111644;1209;99017;-68
2023/12/29 01:11:47;;;;;;;7.90;3.80;;;;;;;5.50;88.21;100239.95;111804;1210;99399;-68
2023/12/29 01:14:13;;;;;;;7.80;3.80;;;;;;;5.50;88.28;100239.61;111607;1206;138483;-68
2023/12/29 01:16:40;;;;;;;6.00;3.60;;;;;;;5.49;88.09;100243.70;111685;1206;99006;-68
2023/12/29 01:19:05;;;;;;;6.00;3.40;;;;;;;5.51;88.18;100243.67;111626;1206;138309;-68
2023/12/29 01:21:33;;;;;;;7.80;3.50;;;;;;;5.51;88.23;100243.48;111656;1209;112378;-68
2023/12/29 01:24:00;;;;;;;7.60;3.60;;;;;;;5.51;88.15;100246.48;111679;1210;99452;-68
2023/12/29 01:26:26;;;;;;;6.20;3.30;;;;;;;5.50;88.28;100243.48;111562;1206;138272;-68
2023/12/29 01:28:51;;;;;;;9.90;3.80;;;;;;;5.51;88.29;100244.19;111670;1209;99026;-68
2023/12/29 01:31:17;;;;;;;9.30;3.70;;;;;;;5.51;88.30;100239.22;111611;1210;138952;-68
2023/12/29 01:33:42;;;;;;;7.80;3.60;;;;;;;5.52;88.42;100234.42;111693;1209;99024;-68
2023/12/29 01:36:07;;;;;;;7.40;3.20;;;;;;;5.51;88.29;100233.39;111744;1209;98713;-68
2023/12/29 01:38:32;;;;;;;9.10;3.50;;;;;;;5.51;88.31;100229.31;111568;1211;138593;-68
2023/12/29 01:40:58;;;;;;;6.90;3.50;;;;;;;5.51;88.50;100228.06;111747;1206;98928;-68
2023/12/29 01:43:23;;;;;;;8.90;4.20;;;;;;;5.52;88.48;100220.25;111602;1206;138436;-68
2023/12/29 01:45:48;;;;;;;9.50;3.70;;;;;;;5.52;88.54;100223.42;111660;1206;99020;-68
2023/12/29 01:48:13;;;;;;;5.30;2.70;;;;;;;5.51;88.38;100220.44;111772;1205;98994;-68
2023/12/29 01:50:40;;;;;;;7.00;3.40;;;;;;;5.51;88.46;100226.28;111573;1206;139101;-68
2023/12/29 01:53:06;;;;;;;8.40;3.30;;;;;;;5.50;88.43;100223.66;111658;1209;98955;-68
2023/12/29 01:55:32;;;;;;;6.70;3.40;;;;;;;5.51;88.48;100220.10;111626;1211;138526;-68
2023/12/29 01:57:58;;;;;;;8.20;3.10;;;;;;;5.51;88.43;100214.26;111649;1206;112396;-68
2023/12/29 02:00:24;;;;;;;7.00;2.80;;;;;;;5.50;88.67;100210.89;111462;1206;139114;-68
2023/12/29 02:02:49;;;;;;;8.30;3.20;;;;;;;5.51;88.56;100204.30;111702;1206;97847;-68
2023/12/29 02:05:17;;;;;;;7.80;3.10;;;;;;;5.54;88.65;100200.69;111656;1206;98946;-69
2023/12/29 02:07:43;;;;;;;8.10;3.20;;;;;;;5.55;88.61;100193.91;111565;1206;138752;-69
2023/12/29 02:10:13;;;;;;;6.30;3.10;;;;;;;5.57;88.56;100186.25;111656;1206;97795;-68
2023/12/29 02:12:39;;;;;;;6.90;2.90;;;;;;;5.57;88.69;100178.45;111512;1205;138607;-68
2023/12/29 02:15:05;;;;;;;3.40;2.60;;;;;;;5.57;88.64;100175.95;111595;1206;99043;-68
2023/12/29 02:17:44;;;;;;;7.20;3.00;;;;;;;5.57;88.64;100171.36;111677;1211;97896;-68
2023/12/29 02:20:11;;;;;;;4.90;2.80;;;;;;;5.56;88.62;100166.77;111578;1210;138399;-69
2023/12/29 02:22:36;;;;;;;4.50;3.00;;;;;;;5.56;88.70;100166.25;111646;1209;99023;-68
2023/12/29 02:25:02;;;;;;;8.00;3.10;;;;;;;5.56;88.65;100169.25;111660;1206;138227;-68
2023/12/29 02:27:41;;;;;;;5.00;3.00;;;;;;;5.56;88.78;100164.48;111663;1209;97778;-68
2023/12/29 02:30:16;;;;;;;6.80;3.30;;;;;;;5.57;88.69;100163.73;111737;1209;99463;-68
2023/12/29 02:32:44;;;;;;;7.20;2.50;;;;;;;5.56;88.80;100161.11;111595;1208;139059;-68
2023/12/29 02:35:14;;;;;;;8.20;3.10;;;;;;;5.57;88.65;100163.03;111656;1209;98940;-68
2023/12/29 02:37:40;;;;;;;7.70;3.60;;;;;;;5.56;88.83;100156.84;111570;1205;138818;-68
2023/12/29 02:40:07;;;;;;;5.90;4.00;;;;;;;5.56;88.68;100156.68;111626;1209;99261;-68
2023/12/29 02:42:33;;;;;;;4.30;2.70;;;;;;;5.56;88.72;100154.02;111535;1207;139158;-68
2023/12/29 02:44:58;;;;;;;7.00;3.10;;;;;;;5.56;88.59;100154.55;111676;1206;98933;-68
2023/12/29 02:47:23;;;;;;;6.10;2.70;;;;;;;5.56;88.83;100153.31;111656;1206;98961;-68
2023/12/29 02:49:50;;;;;;;6.40;3.50;;;;;;;5.57;88.82;100152.04;111583;1206;140216;-68
2023/12/29 02:52:15;;;;;;;5.30;2.90;;;;;;;5.58;88.85;100149.01;111702;1207;99044;-68
2023/12/29 02:54:40;;;;;;;7.40;2.80;;;;;;;5.59;88.82;100146.85;111557;1209;139695;-67
2023/12/29 02:57:05;;;;;;;5.40;2.70;;;;;;;5.60;88.72;100151.05;111745;1206;98977;-68
2023/12/29 02:59:31;;;;;;;5.10;2.50;;;;;;;5.62;88.91;100148.70;111718;1205;98645;-68
2023/12/29 03:01:56;;;;;;;5.70;2.60;;;;;;;5.64;88.96;100147.04;111566;1212;139252;-68
2023/12/29 03:04:21;;;;;;;7.20;2.60;;;;;;;5.65;88.95;100140.78;111721;1209;99463;-68
2023/12/29 03:06:46;;;;;;;4.10;2.70;;;;;;;5.66;88.94;100143.95;111570;1205;138796;-68
2023/12/29 03:09:12;;;;;;;5.00;2.50;;;;;;;5.67;88.86;100142.15;111697;1206;98977;-68
2023/12/29 03:11:37;;;;;;;5.60;2.40;;;;;;;5.68;88.98;100146.01;111661;1208;99093;-68
2023/12/29 03:14:02;;;;;;;4.90;2.40;;;;;;;5.70;88.89;100150.58;111674;1206;138531;-67
2023/12/29 03:16:27;;;;;;;4.10;2.10;;;;;;;5.69;88.94;100142.45;111688;1210;100190;-67
2023/12/29 03:18:53;;;;;;;4.70;2.70;;;;;;;5.70;88.96;100138.70;111516;1210;138715;-68
2023/12/29 03:21:18;;;;;;;5.20;2.80;;;;;;;5.71;89.03;100128.58;111723;1209;99039;-67
2023/12/29 03:23:43;;;;;;;5.50;2.40;;;;;;;5.71;89.03;100124.48;111657;1209;99062;-68
2023/12/29 03:26:08;;;;;;;4.00;2.50;;;;;;;5.71;88.94;100123.43;111640;1206;138532;-67
2023/12/29 03:28:34;;;;;;;4.50;2.50;;;;;;;5.72;89.02;100116.65;111648;1209;99731;-67
2023/12/29 03:30:59;;;;;;;3.70;2.60;;;;;;;5.73;89.07;100108.29;111668;1209;139079;-68
2023/12/29 03:33:24;;;;;;;4.50;2.40;;;;;;;5.73;88.95;100108.99;111727;1207;99548;-68
2023/12/29 03:35:50;;;;;;;4.60;2.00;;;;;;;5.73;89.12;100107.39;111698;1206;98949;-69
2023/12/29 03:38:15;;;;;;;2.70;1.90;;;;;;;5.73;89.00;100104.73;111673;1206;139456;-67
2023/12/29 03:40:40;;;;;;;4.20;2.50;;;;;;;5.73;89.00;100103.31;111681;1208;98860;-67
2023/12/29 03:43:06;;;;;;;4.20;2.40;;;;;;;5.72;88.99;100104.59;111607;1209;138489;-68
2023/12/29 03:45:31;;;;;;;4.40;2.10;;;;;;;5.72;89.03;100104.42;111682;1206;99109;-68
2023/12/29 03:47:56;;;;;;;8.40;2.40;;;;;;;5.71;89.05;100104.64;111736;1206;98928;-68
2023/12/29 03:50:22;;;;;;;5.50;2.40;;;;;;;5.69;88.99;100099.18;111635;1209;138487;-68
2023/12/29 03:52:47;;;;;;;4.50;2.70;;;;;;;5.69;89.08;100095.84;111686;1209;99482;-68
2023/12/29 03:55:14;;;;;;;5.00;2.70;;;;;;;5.68;88.97;100087.35;111655;1206;138308;-68
2023/12/29 03:57:39;;;;;;;4.30;3.00;;;;;;;5.68;89.13;100090.71;111670;1206;112446;-68
2023/12/29 04:00:07;;;;;;;3.70;2.10;;;;;;;5.69;89.06;100091.56;111662;1206;98958;-70
2023/12/29 04:02:32;;;;;;;5.10;2.20;;;;;;;5.70;89.11;100085.52;111578;1206;138640;-67
2023/12/29 04:04:59;;;;;;;2.80;2.10;;;;;;;5.69;89.06;100083.07;111768;1206;97579;-68
2023/12/29 04:07:24;;;;;;;4.70;2.50;;;;;;;5.69;89.07;100083.05;111655;1208;139180;-67
2023/12/29 04:09:49;;;;;;;3.80;2.10;;;;;;;5.70;89.18;100073.98;111703;1206;97885;-68
2023/12/29 04:12:14;;;;;;;6.00;2.20;;;;;;;5.71;89.05;100072.55;111766;1206;98954;-68
2023/12/29 04:14:40;;;;;;;4.10;2.50;;;;;;;5.71;89.04;100071.30;111564;1209;138738;-68
2023/12/29 04:17:13;;;;;;;4.50;2.60;;;;;;;5.72;89.05;100069.31;111794;1206;100871;-68
2023/12/29 04:19:43;;;;;;;6.00;3.10;;;;;;;5.73;89.20;100074.23;111534;1206;138617;-68
2023/12/29 04:22:08;;;;;;;4.30;2.80;;;;;;;5.73;89.20;100072.11;111697;1210;100402;-68
2023/12/29 04:24:34;;;;;;;16.10;4.60;;;;;;;5.74;89.13;100078.11;111619;1209;138759;-69
2023/12/29 04:26:59;;;;;;;3.30;2.10;;;;;;;5.74;89.22;100072.79;111700;1206;99015;-68
2023/12/29 04:29:25;;;;;;;7.20;2.40;;;;;;;5.74;89.18;100071.55;111675;1206;97737;-68
2023/12/29 04:31:50;;;;;;;6.80;2.50;;;;;;;5.72;89.18;100069.49;111594;1210;138341;-68
2023/12/29 04:34:15;;;;;;;10.10;3.00;;;;;;;5.69;89.06;100070.30;111622;1206;98463;-68
2023/12/29 04:36:40;;;;;;;3.60;1.90;;;;;;;5.69;89.05;100068.00;111596;1205;138964;-68
2023/12/29 04:39:08;;;;;;;2.90;1.90;;;;;;;5.68;89.07;100057.73;111712;1206;98955;-68
2023/12/29 04:41:34;;;;;;;3.50;2.30;;;;;;;5.68;89.10;100060.23;111708;1206;99288;-68
2023/12/29 04:44:00;;;;;;;2.80;2.10;;;;;;;5.68;89.17;100059.35;111792;1208;139463;-68
2023/12/29 04:46:25;;;;;;;3.40;2.30;;;;;;;5.68;89.20;100061.27;111774;1210;99048;-68
2023/12/29 04:48:50;;;;;;;4.60;1.80;;;;;;;5.67;89.02;100061.14;111603;1209;139150;-68
2023/12/29 04:51:16;;;;;;;4.10;1.80;;;;;;;5.66;89.22;100055.68;111766;1206;99028;-68
2023/12/29 04:53:41;;;;;;;5.10;2.20;;;;;;;5.65;89.18;100058.90;111719;1209;99103;-68
2023/12/29 04:56:06;;;;;;;6.00;2.40;;;;;;;5.64;89.06;100064.28;111572;1206;138289;-68
2023/12/29 04:58:31;;;;;;;4.80;3.10;;;;;;;5.62;88.98;100061.31;111766;1206;100418;-68
2023/12/29 05:00:56;;;;;;;4.50;2.30;;;;;;;5.62;89.15;100053.16;111581;1206;138798;-68
2023/12/29 05:03:22;;;;;;;3.20;2.00;;;;;;;5.61;89.12;100052.31;111739;1205;99081;-68
2023/12/29 05:05:47;;;;;;;4.40;2.20;;;;;;;5.59;89.05;100047.61;111741;1206;99038;-68
2023/12/29 05:08:12;;;;;;;5.10;2.10;;;;;;;5.56;89.10;100039.18;111680;1209;138504;-68
2023/12/29 05:10:38;;;;;;;5.20;2.20;;;;;;;5.55;89.07;100043.11;111690;1206;99018;-68
2023/12/29 05:13:03;;;;;;;4.10;2.10;;;;;;;5.55;89.10;100037.77;111627;1206;138822;-68
2023/12/29 05:15:28;;;;;;;4.80;2.40;;;;;;;5.56;89.11;100038.13;111621;1210;97897;-68
2023/12/29 05:17:54;;;;;;;3.60;1.70;;;;;;;5.55;89.13;100034.23;111707;1206;98990;-69
2023/12/29 05:20:19;;;;;;;5.60;1.80;;;;;;;5.55;89.26;100032.28;111646;1206;139582;-69
2023/12/29 05:22:44;;;;;;;3.50;2.20;;;;;;;5.56;89.04;100034.58;111670;1209;100304;-69
2023/12/29 05:25:10;;;;;;;3.80;2.20;;;;;;;5.55;89.14;100026.79;111561;1209;139105;-71
2023/12/29 05:27:35;;;;;;;3.70;2.10;;;;;;;5.53;88.97;100025.96;111735;1209;98957;-69
2023/12/29 05:30:01;;;;;;;2.80;1.90;;;;;;;5.53;89.10;100025.79;111720;1208;98413;-69
2023/12/29 05:32:26;;;;;;;3.80;1.90;;;;;;;5.54;89.24;100025.06;111630;1209;138642;-68
2023/12/29 05:34:51;;;;;;;4.70;2.10;;;;;;;5.54;89.10;100023.45;111722;1206;112906;-68
2023/12/29 05:37:17;;;;;;;4.00;2.00;;;;;;;5.54;89.08;100019.73;111606;1209;138640;-68
2023/12/29 05:39:42;;;;;;;3.90;1.70;;;;;;;5.57;89.17;100013.64;111619;1209;99103;-68
2023/12/29 05:42:08;;;;;;;3.70;2.20;;;;;;;5.59;89.15;100013.55;111712;1206;98935;-68
2023/12/29 05:44:36;;;;;;;5.90;2.20;;;;;;;5.62;89.22;100011.67;111684;1209;138913;-68
2023/12/29 05:47:01;;;;;;;3.30;2.50;;;;;;;5.64;89.27;100003.84;111727;1209;107803;-68
2023/12/29 05:49:26;;;;;;;3.50;2.20;;;;;;;5.66;89.27;100001.98;111549;1208;138770;-68
2023/12/29 05:51:52;;;;;;;4.30;1.80;;;;;;;5.69;89.29;100002.60;111806;1205;98961;-68
2023/12/29 05:54:17;;;;;;;5.50;2.20;;;;;;;5.71;89.20;99992.39;111712;1209;99440;-68
2023/12/29 05:56:43;;;;;;;4.70;2.00;;;;;;;5.74;89.33;99995.15;111628;1205;139022;-68
2023/12/29 05:59:09;;;;;;;4.20;2.20;;;;;;;5.75;89.32;99996.37;111848;1208;99476;-68
2023/12/29 06:01:34;;;;;;;3.70;1.90;;;;;;;5.75;89.29;99998.12;111594;1209;138195;-68
2023/12/29 06:03:59;;;;;;;3.10;1.80;;;;;;;5.77;89.32;99995.05;111784;1208;99032;-68
2023/12/29 06:06:24;;;;;;;6.70;1.90;;;;;;;5.79;89.22;99998.17;111565;1209;138802;-69
2023/12/29 06:08:50;;;;;;;2.70;1.70;;;;;;;5.80;89.34;99997.59;111769;1209;97808;-68
2023/12/29 06:11:16;;;;;;;3.60;1.80;;;;;;;5.81;89.40;100000.92;111639;1209;98966;-68
2023/12/29 06:13:41;;;;;;;3.00;2.10;;;;;;;5.84;89.40;100003.30;110985;1205;139511;-67
2023/12/29 06:16:07;;;;;;;4.30;2.20;;;;;;;5.88;89.31;100005.67;111758;1206;104588;-67
2023/12/29 06:18:32;;;;;;;3.90;2.00;;;;;;;5.91;89.41;100003.48;111500;1205;138745;-67
2023/12/29 06:20:57;;;;;;;5.70;2.50;;;;;;;5.92;89.36;99998.09;111661;1210;99023;-70
2023/12/29 06:23:23;;;;;;;3.50;2.30;;;;;;;5.95;89.40;99999.25;111649;1211;98958;-69
2023/12/29 06:25:48;;;;;;;5.30;2.10;;;;;;;5.98;89.38;100001.11;111644;1209;138380;-69
2023/12/29 06:28:14;;;;;;;3.40;2.20;;;;;;;6.00;89.36;100012.53;111908;1206;98961;-70
2023/12/29 06:30:39;;;;;;;4.50;2.20;;;;;;;6.03;89.41;99996.48;111580;1209;139024;-70
2023/12/29 06:33:04;;;;;;;3.90;1.70;;;;;;;6.05;89.38;99990.54;111794;1209;99645;-70
2023/12/29 06:35:30;;;;;;;3.80;2.40;;;;;;;6.07;89.39;99990.65;111685;1210;112212;-70
2023/12/29 06:37:55;;;;;;;2.70;1.90;;;;;;;6.09;89.18;99989.01;111612;1209;138529;-70
2023/12/29 06:40:20;;;;;;;4.00;2.20;;;;;;;6.11;89.27;99987.16;111750;1209;98932;-69
2023/12/29 06:42:47;;;;;;;3.20;1.60;;;;;;;6.11;89.32;99990.15;111620;1206;138439;-67
2023/12/29 06:45:12;;;;;;;3.20;2.10;;;;;;;6.12;89.23;99993.48;111714;1206;98934;-69
2023/12/29 06:47:38;;;;;;;3.60;2.10;;;;;;;6.14;89.21;99988.64;111755;1209;98656;-70
2023/12/29 06:50:04;;;;;;;2.80;1.60;;;;;;;6.15;89.18;99988.43;111578;1209;139309;-70
2023/12/29 06:52:34;;;;;;;2.20;1.70;;;;;;;6.16;89.17;99990.85;111694;1206;98941;-70
2023/12/29 06:55:00;;;;;;;3.00;1.70;;;;;;;6.18;89.07;99986.88;111620;1209;138273;-69
2023/12/29 06:57:26;;;;;;;3.10;1.70;;;;;;;6.19;89.07;99988.44;111703;1211;98952;-70
2023/12/29 06:59:51;;;;;;;3.10;1.90;;;;;;;6.19;89.10;99988.45;111752;1206;98924;-70
2023/12/29 07:02:16;;;;;;;3.40;1.90;;;;;;;6.20;89.09;99988.42;111574;1209;138201;-70
2023/12/29 07:04:43;;;;;;;4.60;1.80;;;;;;;6.21;89.16;99987.69;111689;1206;99012;-67
2023/12/29 07:07:08;;;;;;;2.50;1.50;;;;;;;6.22;89.16;99981.80;111593;1209;138702;-67
2023/12/29 07:09:33;;;;;;;3.50;2.00;;;;;;;6.23;89.06;99986.04;111554;1206;99888;-67
2023/12/29 07:11:58;;;;;;;3.50;2.10;;;;;;;6.23;89.06;99980.17;111271;1210;99059;-67
2023/12/29 07:14:24;;;;;;;2.70;1.80;;;;;;;6.25;89.02;99977.79;110869;1211;138961;-66
2023/12/29 07:16:49;;;;;;;4.90;2.10;;;;;;;6.27;89.19;99975.41;111505;1210;99115;-67
2023/12/29 07:19:14;;;;;;;8.20;2.80;;;;;;;6.30;89.23;99980.45;111701;1209;138222;-68
2023/12/29 07:21:39;;;;;;;4.10;2.30;;;;;;;6.31;89.08;99979.50;111727;1206;99100;-68
2023/12/29 07:24:05;;;;;;;3.30;2.10;;;;;;;6.35;89.20;99982.20;111726;1207;99008;-68
2023/12/29 07:26:33;;;;;;;3.00;1.80;;;;;;;6.37;89.06;99975.19;111548;1206;139031;-67
2023/12/29 07:28:59;;;;;;;4.20;1.90;;;;;;;6.39;89.01;99980.63;111896;1206;98995;-68
2023/12/29 07:31:25;;;;;;;2.70;1.90;;;;;;;6.42;89.13;99977.16;111637;1209;139646;-68
2023/12/29 07:33:51;;;;;;;5.00;2.20;;;;;;;6.45;89.08;99972.95;111888;1205;98965;-68
2023/12/29 07:36:16;;;;;;;3.60;1.80;;;;;;;6.47;89.05;99973.95;111766;1206;99023;-68
2023/12/29 07:38:42;;;;;;;8.60;1.80;;;;;;;6.50;89.08;99968.68;111722;1207;138550;-68
2023/12/29 07:41:08;;;;;;;3.00;2.10;;;;;;;6.51;89.05;99972.90;111849;1210;98938;-68
2023/12/29 07:43:35;;;;;;;6.10;1.80;;;;;;;6.51;89.00;99967.22;111590;1207;138210;-68
2023/12/29 07:46:01;;;;;;;4.70;2.00;;;;;;;6.53;88.91;99962.73;111887;1211;99032;-68
2023/12/29 07:48:26;;;;;;;3.10;2.20;;;;;;;6.54;88.96;99964.27;111639;1209;160436;-68
2023/12/29 07:50:51;;;;;;;3.10;1.50;;;;;;;6.54;88.94;99972.11;111778;1210;99157;-67
2023/12/29 07:53:17;;;;;;;4.00;2.00;;;;;;;6.54;88.95;99977.42;111678;1206;98943;-67
2023/12/29 07:55:43;;;;;;;4.20;2.30;;;;;;;6.54;88.94;99977.23;111724;1210;139345;-67
2023/12/29 07:58:10;;;;;;;5.20;2.20;;;;;;;6.53;88.86;99968.06;111768;1210;112308;-67
2023/12/29 08:00:36;;;;;;;7.50;2.20;;;;;;;6.53;88.90;99967.33;111611;1206;138680;-67
2023/12/29 08:03:01;;;;;;;3.40;1.70;;;;;;;6.55;88.88;99967.44;111724;1206;99291;-67
2023/12/29 08:05:27;;;;;;;5.60;2.60;;;;;;;6.57;88.89;99970.92;110959;1209;99073;-67
2023/12/29 08:07:52;;;;;;;3.70;2.20;;;;;;;6.59;88.97;99970.47;110893;1208;138756;-66
2023/12/29 08:10:17;;;;;;;5.10;2.30;;;;;;;6.62;88.77;99968.05;111000;1207;99101;-69
2023/12/29 08:12:43;;;;;;;2.70;2.20;;;;;;;6.64;88.85;99965.13;111639;1209;138677;-67
2023/12/29 08:15:08;;;;;;;3.60;2.00;;;;;;;6.67;88.86;99965.57;111761;1210;98911;-68
2023/12/29 08:17:33;;;;;;;3.20;2.00;;;;;;;6.68;88.86;99964.46;111817;1211;98917;-66
2023/12/29 08:19:59;;;;;;;5.20;2.70;;;;;;;6.69;88.90;99965.48;111654;1209;138485;-67
2023/12/29 08:22:24;;;;;;;11.00;3.10;;;;;;;6.71;88.77;99972.85;111834;1209;97761;-67
2023/12/29 08:24:50;;;;;;;6.60;2.80;;;;;;;6.72;88.91;99972.27;111559;1208;139122;-68
2023/12/29 08:27:23;;;;;;;4.40;2.40;;;;;;;6.74;88.90;99969.71;111765;1209;99052;-68
2023/12/29 08:29:48;;;;;;;5.80;2.20;;;;;;;6.76;88.82;99965.73;111741;1209;107487;-67
2023/12/29 08:32:13;;;;;;;6.40;2.50;;;;;;;6.79;88.88;99967.92;111440;1208;137706;-67
2023/12/29 08:34:38;;;;;;;4.40;2.50;;;;;;;6.81;88.79;99971.23;111197;1209;98997;-70
2023/12/29 08:37:04;;;;;;;5.60;2.50;;;;;;;6.83;88.76;99975.92;111703;1210;137673;-70
2023/12/29 08:39:29;;;;;;;6.10;2.10;;;;;;;6.84;88.83;99978.58;111832;1207;98923;-69
2023/12/29 08:41:54;;;;;;;4.70;2.40;;;;;;;6.84;88.84;99973.40;111832;1206;98968;-69
2023/12/29 08:44:19;;;;;;;4.60;2.30;;;;;;;6.85;88.68;99967.88;111778;1211;137689;-69
2023/12/29 08:46:44;;;;;;;6.50;2.50;;;;;;;6.86;88.87;99970.16;111781;1206;105244;-70
2023/12/29 08:49:10;;;;;;;3.20;2.20;;;;;;;6.89;88.75;99971.63;111666;1206;138786;-70
2023/12/29 08:51:36;;;;;;;4.10;2.50;;;;;;;6.93;88.70;99978.41;111826;1211;98957;-67
2023/12/29 08:54:02;;;;;;;3.30;2.30;;;;;;;6.96;88.83;99985.21;111838;1208;98942;-65
2023/12/29 08:56:29;;;;;;;3.70;2.10;;;;;;;7.00;88.81;99988.77;111551;1208;139492;-66
2023/12/29 08:58:54;;;;;;;3.30;2.10;;;;;;;7.06;88.86;99983.59;111804;1210;97749;-65
2023/12/29 09:01:20;;;;;;;3.40;1.80;;;;;;;7.11;88.81;99986.94;111755;1207;140083;-66
2023/12/29 09:03:45;;;;;;;4.80;2.40;;;;;;;7.15;88.78;99991.20;111773;1210;99905;-68
2023/12/29 09:06:11;;;;;;;4.00;2.10;;;;;;;7.20;88.68;99996.00;111821;1206;98952;-69
2023/12/29 09:08:36;;;;;;;6.80;2.50;;;;;;;7.22;88.59;99983.11;111682;1206;138511;-70
2023/12/29 09:11:02;;;;;;;8.30;2.90;;;;;;;7.24;88.61;99983.04;111506;1208;99605;-69
2023/12/29 09:13:28;;;;;;;4.10;2.20;;;;;;;7.27;88.68;99992.33;111434;1211;138309;-69
2023/12/29 09:15:54;;;;;;;3.90;2.50;;;;;;;7.30;88.61;99985.44;111580;1211;98926;-69
2023/12/29 09:18:19;;;;;;;4.00;2.20;;;;;;;7.33;88.62;99988.34;111611;1211;99090;-71
2023/12/29 09:20:45;;;;;;;5.30;2.80;;;;;;;7.35;88.63;99987.55;111505;1220;138158;-68
2023/12/29 09:23:10;;;;;;;5.70;2.50;;;;;;;7.36;88.43;99990.18;111588;1210;98745;-69
2023/12/29 09:25:35;;;;;;;6.50;2.70;;;;;;;7.39;88.52;99990.06;111522;1209;138360;-69
2023/12/29 09:28:00;;;;;;;5.10;2.70;;;;;;;7.40;88.51;99987.34;111590;1209;101980;-70
2023/12/29 09:30:26;;;;;;;6.70;2.60;;;;;;;7.42;88.53;99993.84;111402;1210;139284;-70
2023/12/29 09:32:51;;;;;;;7.40;3.00;;;;;;;7.44;88.54;99988.08;111553;1210;98951;-69
2023/12/29 09:35:17;;;;;;;4.80;3.00;;;;;;;7.48;88.50;99992.52;111644;1211;97971;-69
2023/12/29 09:37:42;;;;;;;6.90;3.40;;;;;;;7.51;88.53;99987.27;111575;1211;138622;-69
2023/12/29 09:40:10;;;;;;;5.40;2.70;;;;;;;7.55;88.50;99990.12;111601;1207;107392;-69
2023/12/29 09:42:37;;;;;;;7.80;3.00;;;;;;;7.60;88.51;99989.92;111519;1207;138811;-68
2023/12/29 09:45:09;;;;;;;6.00;2.70;;;;;;;7.64;88.55;99983.34;111754;1211;99077;-69
2023/12/29 09:47:38;;;;;;;6.60;2.50;;;;;;;7.68;88.50;99977.13;111590;1210;112850;-70
2023/12/29 09:50:05;;;;;;;5.50;2.20;;;;;;;7.72;88.40;99978.89;111559;1210;141202;-69
2023/12/29 09:52:31;;;;;;;5.60;2.60;;;;;;;7.73;88.42;99973.35;111556;1207;99020;-69
2023/12/29 09:54:57;;;;;;;5.70;2.30;;;;;;;7.74;88.34;99968.84;111489;1209;138451;-69
2023/12/29 09:57:24;;;;;;;4.80;2.30;;;;;;;7.75;88.32;99968.96;111626;1209;99059;-70
2023/12/29 09:59:54;;;;;;;5.60;2.10;;;;;;;7.78;88.25;99971.16;111673;1209;100023;-70
2023/12/29 10:02:22;;;;;;;6.40;2.20;;;;;;;7.80;88.24;99962.86;111519;1210;138593;-69
2023/12/29 10:04:47;;;;;;;4.20;1.90;;;;;;;7.83;88.23;99975.17;111635;1206;98878;-69
2023/12/29 10:07:18;;;;;;;6.30;2.50;;;;;;;7.89;88.28;99981.55;111560;1206;138273;-69
2023/12/29 10:09:45;;;;;;;3.60;2.00;;;;;;;7.91;88.12;99974.50;111682;1209;111650;-69
2023/12/29 10:12:12;;;;;;;3.90;2.20;;;;;;;7.97;88.15;99966.92;111602;1206;99836;-70
2023/12/29 10:15:09;;;;;;;4.00;2.00;;;;;;;8.04;88.16;99966.46;111471;1209;138252;-70
2023/12/29 10:18:03;;;;;;;2.40;1.40;;;;;;;8.07;87.98;99962.60;111408;1206;99143;-68
2023/12/29 10:21:02;;;;;;;6.30;2.40;;;;;;;8.08;87.94;99955.77;111498;1211;138660;-70
2023/12/29 10:23:45;;;;;;;3.30;1.70;;;;;;;8.11;87.83;99961.52;111615;1206;112387;-69
2023/12/29 10:26:12;;;;;;;4.20;1.90;;;;;;;8.11;87.72;99949.92;111563;1211;138558;-69
2023/12/29 10:28:37;;;;;;;7.90;2.50;;;;;;;8.13;87.69;99952.35;111581;1209;99012;-70
2023/12/29 10:31:04;;;;;;;4.30;2.50;;;;;;;8.18;87.69;99952.30;111610;1211;138773;-70
2023/12/29 10:33:31;;;;;;;4.70;2.70;;;;;;;8.24;87.74;99957.91;111581;1211;112704;-67
2023/12/29 10:36:07;;;;;;;4.00;2.00;;;;;;;8.28;87.57;99960.03;111544;1210;98972;-69
2023/12/29 10:38:32;;;;;;;3.40;2.30;;;;;;;8.30;87.49;99966.55;111466;1210;138427;-69
2023/12/29 10:41:16;;;;;;;4.90;2.20;;;;;;;8.34;87.46;99966.55;111663;1206;100320;-69
2023/12/29 10:43:42;;;;;;;4.60;2.50;;;;;;;8.37;87.37;99964.11;111487;1210;139219;-68
2023/12/29 10:46:09;;;;;;;5.40;2.40;;;;;;;8.38;87.30;99963.35;111512;1212;98633;-69
2023/12/29 10:48:35;;;;;;;5.20;2.50;;;;;;;8.39;86.78;99951.02;111550;1208;140338;-69
2023/12/29 10:51:03;;;;;;;4.70;2.10;;;;;;;8.40;87.08;99940.11;111775;1212;99067;-69
2023/12/29 10:53:33;;;;;;;4.60;2.00;;;;;;;8.41;87.05;99941.52;111601;1206;99455;-68
2023/12/29 10:55:58;;;;;;;4.30;2.50;;;;;;;8.42;86.93;99942.55;111541;1207;138434;-70
2023/12/29 10:58:31;;;;;;;6.60;2.40;;;;;;;8.43;86.79;99936.76;111730;1209;99143;-69
2023/12/29 11:00:56;;;;;;;3.60;1.90;;;;;;;8.43;86.78;99934.80;111513;1206;138786;-70
2023/12/29 11:03:23;;;;;;;3.80;2.20;;;;;;;8.46;86.80;99937.38;111603;1207;99019;-70
2023/12/29 11:05:49;;;;;;;6.60;2.70;;;;;;;8.47;86.87;99950.30;111548;1210;98939;-70
2023/12/29 11:08:16;;;;;;;5.30;2.60;;;;;;;8.53;86.65;99949.68;111536;1209;138907;-71
2023/12/29 11:10:43;;;;;;;4.60;2.40;;;;;;;8.55;86.56;99942.48;111667;1209;107526;-68
2023/12/29 11:13:11;;;;;;;4.90;2.00;;;;;;;8.53;86.52;99942.17;111453;1211;138439;-72
2023/12/29 11:15:38;;;;;;;5.60;2.30;;;;;;;8.56;86.52;99945.83;111411;1212;98928;-70
2023/12/29 11:18:05;;;;;;;3.50;1.70;;;;;;;8.60;86.41;99933.17;111571;1211;98993;-69
2023/12/29 11:20:32;;;;;;;4.00;2.40;;;;;;;8.60;86.42;99949.90;111508;1210;139637;-70